createdAt,value
2022-07-26T00:00:05.756Z,44.09
2022-07-26T00:00:20.047Z,44.53
2022-07-26T00:00:32.001Z,44.19
2022-07-26T00:00:44.632Z,43.73
2022-07-26T00:00:56.699Z,43.76
2022-07-26T00:01:08.740Z,43.58
2022-07-26T00:01:22.067Z,43.37
2022-07-26T00:01:34.414Z,43.35
2022-07-26T00:01:46.668Z,43.64
2022-07-26T00:01:58.893Z,43.45
2022-07-26T00:02:14.180Z,43.18
2022-07-26T00:02:30.114Z,43.37
2022-07-26T00:02:47.201Z,43.17
2022-07-26T00:03:00.006Z,42.72
2022-07-26T00:03:12.020Z,42.77
2022-07-26T00:03:23.953Z,42.41
2022-07-26T00:03:35.895Z,42.70
2022-07-26T00:03:49.772Z,42.58
2022-07-26T00:04:02.023Z,42.88
2022-07-26T00:04:13.966Z,42.79
2022-07-26T00:04:26.080Z,42.96
2022-07-26T00:04:38.155Z,43.09
2022-07-26T00:04:50.167Z,43.29
2022-07-26T00:05:02.094Z,43.49
2022-07-26T00:05:14.759Z,43.75
2022-07-26T00:05:26.686Z,43.12
2022-07-26T00:05:38.917Z,43.08
2022-07-26T00:05:50.843Z,43.10
2022-07-26T00:06:02.814Z,42.88
2022-07-26T00:06:15.277Z,43.32
2022-07-26T00:06:27.780Z,43.54
2022-07-26T00:06:39.728Z,43.28
2022-07-26T00:06:51.728Z,43.32
2022-07-26T00:07:03.738Z,42.64
2022-07-26T00:07:15.690Z,42.86
2022-07-26T00:07:27.644Z,42.85
2022-07-26T00:07:48.408Z,42.76
2022-07-26T00:08:10.636Z,42.72
2022-07-26T00:08:22.925Z,42.81
2022-07-26T00:08:34.951Z,42.63
2022-07-26T00:08:47.899Z,43.09
2022-07-26T00:08:59.888Z,43.08
2022-07-26T00:09:11.953Z,43.42
2022-07-26T00:09:24.059Z,43.18
2022-07-26T00:09:36.061Z,42.81
2022-07-26T00:09:48.629Z,42.53
2022-07-26T00:10:00.909Z,42.64
2022-07-26T00:10:13.706Z,42.25
2022-07-26T00:10:25.693Z,42.58
2022-07-26T00:10:48.685Z,42.29
2022-07-26T00:11:00.740Z,42.25
2022-07-26T00:11:19.406Z,42.32
2022-07-26T00:11:33.693Z,42.69
2022-07-26T00:11:45.744Z,42.77
2022-07-26T00:11:57.916Z,42.48
2022-07-26T00:12:10.656Z,42.67
2022-07-26T00:12:22.630Z,42.46
2022-07-26T00:12:34.629Z,42.77
2022-07-26T00:12:46.567Z,42.85
2022-07-26T00:12:58.483Z,42.65
2022-07-26T00:13:11.308Z,42.52
2022-07-26T00:13:23.321Z,42.32
2022-07-26T00:13:35.424Z,42.27
2022-07-26T00:13:47.695Z,42.07
2022-07-26T00:14:03.525Z,43.01
2022-07-26T00:14:15.878Z,42.39
2022-07-26T00:14:27.920Z,42.39
2022-07-26T00:14:39.907Z,42.08
2022-07-26T00:14:53.448Z,42.14
2022-07-26T00:15:08.704Z,42.71
2022-07-26T00:15:20.642Z,42.41
2022-07-26T00:15:32.750Z,42.10
2022-07-26T00:15:44.947Z,41.94
2022-07-26T00:15:57.366Z,41.86
2022-07-26T00:16:10.002Z,42.03
2022-07-26T00:16:22.106Z,42.18
2022-07-26T00:16:35.963Z,41.86
2022-07-26T00:16:48.106Z,41.86
2022-07-26T00:17:00.157Z,42.17
2022-07-26T00:17:12.128Z,41.84
2022-07-26T00:17:24.099Z,42.07
2022-07-26T00:17:36.092Z,41.82
2022-07-26T00:17:48.015Z,42.07
2022-07-26T00:17:59.985Z,42.19
2022-07-26T00:18:12.494Z,42.22
2022-07-26T00:18:24.975Z,42.09
2022-07-26T00:18:37.023Z,41.96
2022-07-26T00:18:48.940Z,41.95
2022-07-26T00:19:00.886Z,42.21
2022-07-26T00:19:12.854Z,41.93
2022-07-26T00:19:24.791Z,41.64
2022-07-26T00:19:36.757Z,41.93
2022-07-26T00:19:48.797Z,41.88
2022-07-26T00:20:00.761Z,41.76
2022-07-26T00:20:12.699Z,41.84
2022-07-26T00:20:27.670Z,41.85
2022-07-26T00:20:41.505Z,41.73
2022-07-26T00:20:53.821Z,41.75
2022-07-26T00:21:07.589Z,41.87
2022-07-26T00:21:20.497Z,41.83
2022-07-26T00:21:32.717Z,41.61
2022-07-26T00:21:44.757Z,41.78
2022-07-26T00:22:15.346Z,41.73
2022-07-26T00:22:36.188Z,41.58
2022-07-26T00:22:48.164Z,41.68
2022-07-26T00:23:01.071Z,41.56
2022-07-26T00:23:13.035Z,41.34
2022-07-26T00:23:25.018Z,41.10
2022-07-26T00:23:36.976Z,41.31
2022-07-26T00:23:49.190Z,41.31
2022-07-26T00:24:01.116Z,41.23
2022-07-26T00:24:13.138Z,41.40
2022-07-26T00:24:25.878Z,41.27
2022-07-26T00:24:39.438Z,41.20
2022-07-26T00:24:51.465Z,41.07
2022-07-26T00:25:06.114Z,41.12
2022-07-26T00:25:19.142Z,40.96
2022-07-26T00:25:31.128Z,41.37
2022-07-26T00:25:43.066Z,41.46
2022-07-26T00:25:55.029Z,42.02
2022-07-26T00:26:07.111Z,41.37
2022-07-26T00:26:19.207Z,41.44
2022-07-26T00:26:31.268Z,41.64
2022-07-26T00:26:43.254Z,41.33
2022-07-26T00:26:55.179Z,41.53
2022-07-26T00:27:07.146Z,41.05
2022-07-26T00:27:19.104Z,41.05
2022-07-26T00:27:31.195Z,40.64
2022-07-26T00:27:43.167Z,41.03
2022-07-26T00:27:55.745Z,41.04
2022-07-26T00:28:07.972Z,41.35
2022-07-26T00:28:21.659Z,41.30
2022-07-26T00:28:33.724Z,41.09
2022-07-26T00:28:46.064Z,41.33
2022-07-26T00:28:58.162Z,41.26
2022-07-26T00:29:10.446Z,41.02
2022-07-26T00:29:23.022Z,41.10
2022-07-26T00:29:35.104Z,40.97
2022-07-26T00:29:47.041Z,40.93
2022-07-26T00:29:59.519Z,40.77
2022-07-26T00:30:12.099Z,40.77
2022-07-26T00:30:24.971Z,40.70
2022-07-26T00:30:37.272Z,40.99
2022-07-26T00:30:49.213Z,41.03
2022-07-26T00:31:01.295Z,41.00
2022-07-26T00:31:13.934Z,41.56
2022-07-26T00:31:26.207Z,41.18
2022-07-26T00:31:38.235Z,41.27
2022-07-26T00:31:51.421Z,41.26
2022-07-26T00:32:03.660Z,41.13
2022-07-26T00:32:15.670Z,40.87
2022-07-26T00:32:27.631Z,40.97
2022-07-26T00:32:40.156Z,40.93
2022-07-26T00:32:55.201Z,40.99
2022-07-26T00:33:07.293Z,40.56
2022-07-26T00:33:20.577Z,40.74
2022-07-26T00:33:32.959Z,41.12
2022-07-26T00:33:45.163Z,40.57
2022-07-26T00:33:57.298Z,41.08
2022-07-26T00:34:09.242Z,40.85
2022-07-26T00:34:21.224Z,40.42
2022-07-26T00:34:33.227Z,40.55
2022-07-26T00:34:45.200Z,40.61
2022-07-26T00:34:57.142Z,40.61
2022-07-26T00:35:10.163Z,40.18
2022-07-26T00:35:22.708Z,40.43
2022-07-26T00:35:35.584Z,40.79
2022-07-26T00:35:47.714Z,40.83
2022-07-26T00:36:00.674Z,40.69
2022-07-26T00:36:12.909Z,40.58
2022-07-26T00:36:27.550Z,40.62
2022-07-26T00:36:41.873Z,41.09
2022-07-26T00:36:53.908Z,41.10
2022-07-26T00:37:05.860Z,40.97
2022-07-26T00:37:20.908Z,40.77
2022-07-26T00:37:33.212Z,40.82
2022-07-26T00:37:45.288Z,41.11
2022-07-26T00:37:59.002Z,41.15
2022-07-26T00:38:11.216Z,41.00
2022-07-26T00:38:24.708Z,41.43
2022-07-26T00:38:36.788Z,41.04
2022-07-26T00:38:48.743Z,41.16
2022-07-26T00:39:00.662Z,40.85
2022-07-26T00:39:12.632Z,40.79
2022-07-26T00:39:24.645Z,41.11
2022-07-26T00:39:36.628Z,41.26
2022-07-26T00:39:49.291Z,41.00
2022-07-26T00:40:01.392Z,41.10
2022-07-26T00:40:13.905Z,41.27
2022-07-26T00:40:26.071Z,41.44
2022-07-26T00:40:38.021Z,41.50
2022-07-26T00:40:50.330Z,41.38
2022-07-26T00:41:02.532Z,41.50
2022-07-26T00:41:14.507Z,41.72
2022-07-26T00:41:26.468Z,41.23
2022-07-26T00:41:38.429Z,41.20
2022-07-26T00:41:50.714Z,41.18
2022-07-26T00:42:02.716Z,41.36
2022-07-26T00:42:14.797Z,41.31
2022-07-26T00:42:27.030Z,41.24
2022-07-26T00:42:39.429Z,41.37
2022-07-26T00:42:51.761Z,41.28
2022-07-26T00:43:03.728Z,41.32
2022-07-26T00:43:15.807Z,41.39
2022-07-26T00:43:27.753Z,41.59
2022-07-26T00:43:57.477Z,41.82
2022-07-26T00:44:09.555Z,41.67
2022-07-26T00:44:21.533Z,41.32
2022-07-26T00:44:45.504Z,41.48
2022-07-26T00:44:57.595Z,41.39
2022-07-26T00:45:11.402Z,41.43
2022-07-26T00:45:25.533Z,41.30
2022-07-26T00:45:38.748Z,41.66
2022-07-26T00:45:51.182Z,41.68
2022-07-26T00:46:03.640Z,41.58
2022-07-26T00:46:15.790Z,41.94
2022-07-26T00:46:28.448Z,41.69
2022-07-26T00:46:46.386Z,41.91
2022-07-26T00:46:58.320Z,41.76
2022-07-26T00:47:10.524Z,41.71
2022-07-26T00:47:22.615Z,41.54
2022-07-26T00:47:35.726Z,41.64
2022-07-26T00:47:47.722Z,41.54
2022-07-26T00:47:59.730Z,41.50
2022-07-26T00:48:11.672Z,41.49
2022-07-26T00:48:23.809Z,41.57
2022-07-26T00:48:35.826Z,41.38
2022-07-26T00:48:47.887Z,41.60
2022-07-26T00:49:00.115Z,41.61
2022-07-26T00:49:12.983Z,41.20
2022-07-26T00:49:25.251Z,41.54
2022-07-26T00:49:37.358Z,41.30
2022-07-26T00:49:49.563Z,41.44
2022-07-26T00:50:01.839Z,41.10
2022-07-26T00:50:17.397Z,41.37
2022-07-26T00:50:29.403Z,41.14
2022-07-26T00:50:41.405Z,41.09
2022-07-26T00:50:54.586Z,41.28
2022-07-26T00:51:06.569Z,41.49
2022-07-26T00:51:19.070Z,41.66
2022-07-26T00:51:31.060Z,41.43
2022-07-26T00:51:45.692Z,41.41
2022-07-26T00:51:58.650Z,41.72
2022-07-26T00:52:11.414Z,41.76
2022-07-26T00:52:25.319Z,41.81
2022-07-26T00:52:37.548Z,41.84
2022-07-26T00:52:50.549Z,41.71
2022-07-26T00:53:02.817Z,41.81
2022-07-26T00:53:14.877Z,41.65
2022-07-26T00:53:26.872Z,41.51
2022-07-26T00:53:38.924Z,42.47
2022-07-26T00:53:50.921Z,42.02
2022-07-26T00:54:04.834Z,42.12
2022-07-26T00:54:17.035Z,41.91
2022-07-26T00:54:28.978Z,42.00
2022-07-26T00:54:46.576Z,41.72
2022-07-26T00:55:00.387Z,41.61
2022-07-26T00:55:15.513Z,41.92
2022-07-26T00:55:27.738Z,41.98
2022-07-26T00:55:41.680Z,41.76
2022-07-26T00:55:53.687Z,41.69
2022-07-26T00:56:05.694Z,41.87
2022-07-26T00:56:18.010Z,41.59
2022-07-26T00:56:31.770Z,42.08
2022-07-26T00:56:44.208Z,41.75
2022-07-26T00:56:56.214Z,41.84
2022-07-26T00:57:08.197Z,41.79
2022-07-26T00:57:22.565Z,41.93
2022-07-26T00:57:35.677Z,41.95
2022-07-26T00:57:47.758Z,41.91
2022-07-26T00:58:01.726Z,42.34
2022-07-26T00:58:13.778Z,42.11
2022-07-26T00:58:25.714Z,41.84
2022-07-26T00:58:37.650Z,42.06
2022-07-26T00:58:49.577Z,41.96
2022-07-26T00:59:01.706Z,42.20
2022-07-26T00:59:13.691Z,42.03
2022-07-26T00:59:25.765Z,42.07
2022-07-26T00:59:38.216Z,42.03
2022-07-26T00:59:50.332Z,41.92
2022-07-26T01:00:09.472Z,42.26
2022-07-26T01:00:23.765Z,41.71
2022-07-26T01:00:35.793Z,42.29
2022-07-26T01:00:47.787Z,41.95
2022-07-26T01:00:59.808Z,42.15
2022-07-26T01:01:12.354Z,42.17
2022-07-26T01:01:24.582Z,42.06
2022-07-26T01:01:36.640Z,42.09
2022-07-26T01:01:48.844Z,41.94
2022-07-26T01:02:04.079Z,42.21
2022-07-26T01:02:16.379Z,42.20
2022-07-26T01:02:28.472Z,42.10
2022-07-26T01:02:40.858Z,42.07
2022-07-26T01:02:53.108Z,42.41
2022-07-26T01:03:06.381Z,42.25
2022-07-26T01:03:18.373Z,42.64
2022-07-26T01:03:30.380Z,42.57
2022-07-26T01:03:53.160Z,42.44
2022-07-26T01:04:05.521Z,42.42
2022-07-26T01:04:17.795Z,42.29
2022-07-26T01:04:29.784Z,42.64
2022-07-26T01:04:44.408Z,42.39
2022-07-26T01:04:56.711Z,42.53
2022-07-26T01:05:08.998Z,42.53
2022-07-26T01:05:23.065Z,42.69
2022-07-26T01:05:36.481Z,42.75
2022-07-26T01:05:48.841Z,42.62
2022-07-26T01:06:00.875Z,42.71
2022-07-26T01:06:12.907Z,42.65
2022-07-26T01:06:27.503Z,42.64
2022-07-26T01:06:39.936Z,42.45
2022-07-26T01:06:52.191Z,42.63
2022-07-26T01:07:14.824Z,42.68
2022-07-26T01:07:28.890Z,42.68
2022-07-26T01:07:41.723Z,42.69
2022-07-26T01:07:53.915Z,42.69
2022-07-26T01:08:06.004Z,43.05
2022-07-26T01:08:18.241Z,43.06
2022-07-26T01:08:30.213Z,43.01
2022-07-26T01:08:42.206Z,43.10
2022-07-26T01:08:54.559Z,43.04
2022-07-26T01:09:06.615Z,43.12
2022-07-26T01:09:18.934Z,43.10
2022-07-26T01:09:31.072Z,43.05
2022-07-26T01:09:45.382Z,43.04
2022-07-26T01:09:57.376Z,43.11
2022-07-26T01:10:12.726Z,43.31
2022-07-26T01:10:24.994Z,43.45
2022-07-26T01:10:36.922Z,43.49
2022-07-26T01:10:48.872Z,43.51
2022-07-26T01:11:00.800Z,43.44
2022-07-26T01:11:13.000Z,43.49
2022-07-26T01:11:24.974Z,43.62
2022-07-26T01:11:36.988Z,43.80
2022-07-26T01:11:49.472Z,43.58
2022-07-26T01:12:01.439Z,43.54
2022-07-26T01:12:13.388Z,43.23
2022-07-26T01:12:25.339Z,43.65
2022-07-26T01:12:37.719Z,43.53
2022-07-26T01:12:49.835Z,43.56
2022-07-26T01:13:01.843Z,44.26
2022-07-26T01:13:19.569Z,43.63
2022-07-26T01:13:35.028Z,43.85
2022-07-26T01:13:49.251Z,43.61
2022-07-26T01:14:01.206Z,43.73
2022-07-26T01:14:13.233Z,43.60
2022-07-26T01:14:25.371Z,43.75
2022-07-26T01:14:37.432Z,43.43
2022-07-26T01:14:49.375Z,43.61
2022-07-26T01:15:01.488Z,43.32
2022-07-26T01:15:15.333Z,43.67
2022-07-26T01:15:27.495Z,43.67
2022-07-26T01:15:39.486Z,43.28
2022-07-26T01:15:51.506Z,43.87
2022-07-26T01:16:03.889Z,43.62
2022-07-26T01:16:16.622Z,43.64
2022-07-26T01:16:28.742Z,44.42
2022-07-26T01:16:40.971Z,43.93
2022-07-26T01:16:53.701Z,43.87
2022-07-26T01:17:07.774Z,43.97
2022-07-26T01:17:19.715Z,43.94
2022-07-26T01:17:32.637Z,43.69
2022-07-26T01:17:48.258Z,43.87
2022-07-26T01:18:00.214Z,43.73
2022-07-26T01:18:12.167Z,43.86
2022-07-26T01:18:24.111Z,43.69
2022-07-26T01:18:36.039Z,43.66
2022-07-26T01:18:48.099Z,43.71
2022-07-26T01:19:00.108Z,43.71
2022-07-26T01:19:12.096Z,43.49
2022-07-26T01:19:24.448Z,43.74
2022-07-26T01:19:36.388Z,43.83
2022-07-26T01:19:48.436Z,43.65
2022-07-26T01:20:00.656Z,44.12
2022-07-26T01:20:13.757Z,44.07
2022-07-26T01:20:25.854Z,43.98
2022-07-26T01:20:38.305Z,43.68
2022-07-26T01:20:50.645Z,43.93
2022-07-26T01:21:13.110Z,44.00
2022-07-26T01:21:33.748Z,43.60
2022-07-26T01:21:45.845Z,43.93
2022-07-26T01:21:57.877Z,43.68
2022-07-26T01:22:14.196Z,43.76
2022-07-26T01:22:26.758Z,43.61
2022-07-26T01:22:39.194Z,43.77
2022-07-26T01:22:51.142Z,43.68
2022-07-26T01:23:03.152Z,43.68
2022-07-26T01:23:15.208Z,44.12
2022-07-26T01:23:27.313Z,44.30
2022-07-26T01:23:39.388Z,44.14
2022-07-26T01:23:53.322Z,44.19
2022-07-26T01:24:06.516Z,43.96
2022-07-26T01:24:20.284Z,43.89
2022-07-26T01:24:32.564Z,44.02
2022-07-26T01:24:44.506Z,44.12
2022-07-26T01:24:56.695Z,43.95
2022-07-26T01:25:09.908Z,44.05
2022-07-26T01:25:42.409Z,44.27
2022-07-26T01:25:55.755Z,44.24
2022-07-26T01:26:08.671Z,44.43
2022-07-26T01:26:21.126Z,44.32
2022-07-26T01:26:37.826Z,44.38
2022-07-26T01:26:49.772Z,44.46
2022-07-26T01:27:01.855Z,44.27
2022-07-26T01:27:15.494Z,44.27
2022-07-26T01:27:33.530Z,44.08
2022-07-26T01:27:45.976Z,44.20
2022-07-26T01:27:58.035Z,44.35
2022-07-26T01:28:10.006Z,44.33
2022-07-26T01:28:21.946Z,44.57
2022-07-26T01:28:37.835Z,44.56
2022-07-26T01:28:50.311Z,44.65
2022-07-26T01:29:02.410Z,44.75
2022-07-26T01:29:14.396Z,44.86
2022-07-26T01:29:34.730Z,44.83
2022-07-26T01:29:49.151Z,44.75
2022-07-26T01:30:01.153Z,44.74
2022-07-26T01:30:13.712Z,44.78
2022-07-26T01:30:25.691Z,44.75
2022-07-26T01:30:37.791Z,44.93
2022-07-26T01:30:50.201Z,44.76
2022-07-26T01:31:02.262Z,44.82
2022-07-26T01:31:14.346Z,44.61
2022-07-26T01:31:26.664Z,44.73
2022-07-26T01:31:39.065Z,44.56
2022-07-26T01:31:51.547Z,44.71
2022-07-26T01:32:04.943Z,44.85
2022-07-26T01:32:17.073Z,44.78
2022-07-26T01:32:29.024Z,45.05
2022-07-26T01:32:40.995Z,45.26
2022-07-26T01:32:53.201Z,44.92
2022-07-26T01:33:06.543Z,45.46
2022-07-26T01:33:19.058Z,45.47
2022-07-26T01:33:32.450Z,45.18
2022-07-26T01:33:44.606Z,45.07
2022-07-26T01:33:56.631Z,45.01
2022-07-26T01:34:08.946Z,44.92
2022-07-26T01:34:21.186Z,44.98
2022-07-26T01:34:33.151Z,44.94
2022-07-26T01:34:45.349Z,44.79
2022-07-26T01:34:57.313Z,44.71
2022-07-26T01:35:09.749Z,44.81
2022-07-26T01:35:22.205Z,44.94
2022-07-26T01:35:34.157Z,44.97
2022-07-26T01:35:46.219Z,45.06
2022-07-26T01:36:00.420Z,45.27
2022-07-26T01:36:12.711Z,45.25
2022-07-26T01:36:24.704Z,45.31
2022-07-26T01:36:36.645Z,45.64
2022-07-26T01:36:52.072Z,45.63
2022-07-26T01:37:04.103Z,45.57
2022-07-26T01:37:16.076Z,45.60
2022-07-26T01:37:28.188Z,45.69
2022-07-26T01:37:40.118Z,45.45
2022-07-26T01:37:52.111Z,45.65
2022-07-26T01:38:04.051Z,45.54
2022-07-26T01:38:15.983Z,45.52
2022-07-26T01:38:27.920Z,45.40
2022-07-26T01:38:41.403Z,45.31
2022-07-26T01:38:53.324Z,45.21
2022-07-26T01:39:06.747Z,45.23
2022-07-26T01:39:18.744Z,45.40
2022-07-26T01:39:30.728Z,45.61
2022-07-26T01:39:44.185Z,45.33
2022-07-26T01:39:56.136Z,45.73
2022-07-26T01:40:09.203Z,45.66
2022-07-26T01:40:22.860Z,45.56
2022-07-26T01:40:34.929Z,45.60
2022-07-26T01:40:46.892Z,45.48
2022-07-26T01:40:58.836Z,45.80
2022-07-26T01:41:11.186Z,45.46
2022-07-26T01:41:38.361Z,45.93
2022-07-26T01:41:50.601Z,45.39
2022-07-26T01:42:03.074Z,45.42
2022-07-26T01:42:16.461Z,45.43
2022-07-26T01:42:28.444Z,45.41
2022-07-26T01:42:41.502Z,45.44
2022-07-26T01:42:53.453Z,45.17
2022-07-26T01:43:05.405Z,45.28
2022-07-26T01:43:18.911Z,45.98
2022-07-26T01:43:30.856Z,45.62
2022-07-26T01:43:43.614Z,45.57
2022-07-26T01:43:55.620Z,45.43
2022-07-26T01:44:08.578Z,45.63
2022-07-26T01:44:20.700Z,46.05
2022-07-26T01:44:32.674Z,45.94
2022-07-26T01:44:44.653Z,45.91
2022-07-26T01:44:56.802Z,45.50
2022-07-26T01:45:12.603Z,45.47
2022-07-26T01:45:24.559Z,45.60
2022-07-26T01:45:36.567Z,45.60
2022-07-26T01:45:48.694Z,45.68
2022-07-26T01:46:00.761Z,45.76
2022-07-26T01:46:13.652Z,45.75
2022-07-26T01:46:25.948Z,45.79
2022-07-26T01:46:38.292Z,45.83
2022-07-26T01:46:50.377Z,45.84
2022-07-26T01:47:02.294Z,45.95
2022-07-26T01:47:14.232Z,45.82
2022-07-26T01:47:26.227Z,45.86
2022-07-26T01:47:39.107Z,45.89
2022-07-26T01:47:51.043Z,46.12
2022-07-26T01:48:03.158Z,46.04
2022-07-26T01:48:15.201Z,45.92
2022-07-26T01:48:27.257Z,45.85
2022-07-26T01:48:39.472Z,46.00
2022-07-26T01:48:52.044Z,46.24
2022-07-26T01:49:04.595Z,46.18
2022-07-26T01:49:16.774Z,46.17
2022-07-26T01:49:28.782Z,46.27
2022-07-26T01:49:40.734Z,46.08
2022-07-26T01:49:52.725Z,46.02
2022-07-26T01:50:06.691Z,45.94
2022-07-26T01:50:18.993Z,46.07
2022-07-26T01:50:30.986Z,46.38
2022-07-26T01:50:43.007Z,46.17
2022-07-26T01:50:54.980Z,46.15
2022-07-26T01:51:06.927Z,45.89
2022-07-26T01:51:19.001Z,46.18
2022-07-26T01:51:31.035Z,46.13
2022-07-26T01:51:43.313Z,46.42
2022-07-26T01:51:55.388Z,46.40
2022-07-26T01:52:07.339Z,46.36
2022-07-26T01:52:19.294Z,46.37
2022-07-26T01:52:31.242Z,46.56
2022-07-26T01:52:43.567Z,46.46
2022-07-26T01:52:55.502Z,46.37
2022-07-26T01:53:07.453Z,46.50
2022-07-26T01:53:22.399Z,47.33
2022-07-26T01:53:34.482Z,46.84
2022-07-26T01:53:47.342Z,46.82
2022-07-26T01:54:00.776Z,47.00
2022-07-26T01:54:12.927Z,47.17
2022-07-26T01:54:25.528Z,46.91
2022-07-26T01:54:37.525Z,46.99
2022-07-26T01:54:49.601Z,46.93
2022-07-26T01:55:01.881Z,47.01
2022-07-26T01:55:13.848Z,47.01
2022-07-26T01:55:25.889Z,47.02
2022-07-26T01:55:37.911Z,47.02
2022-07-26T01:55:49.896Z,47.06
2022-07-26T01:56:01.947Z,47.11
2022-07-26T01:56:14.548Z,46.96
2022-07-26T01:56:26.526Z,47.02
2022-07-26T01:56:38.556Z,47.06
2022-07-26T01:56:50.484Z,47.01
2022-07-26T01:57:02.482Z,47.01
2022-07-26T01:57:17.404Z,46.97
2022-07-26T01:57:29.340Z,47.05
2022-07-26T01:57:42.488Z,47.01
2022-07-26T01:57:54.891Z,47.14
2022-07-26T01:58:07.352Z,47.09
2022-07-26T01:58:19.537Z,46.93
2022-07-26T01:58:31.471Z,47.60
2022-07-26T01:58:43.446Z,47.54
2022-07-26T01:58:55.482Z,47.60
2022-07-26T01:59:07.565Z,47.83
2022-07-26T01:59:19.538Z,47.52
2022-07-26T01:59:31.492Z,47.46
2022-07-26T01:59:43.476Z,47.52
2022-07-26T01:59:55.607Z,47.56
2022-07-26T02:00:08.289Z,47.92
2022-07-26T02:00:20.359Z,47.70
2022-07-26T02:00:34.325Z,47.64
2022-07-26T02:00:46.381Z,47.52
2022-07-26T02:00:58.376Z,47.59
2022-07-26T02:01:10.365Z,47.34
2022-07-26T02:01:38.387Z,47.56
2022-07-26T02:01:51.975Z,47.56
2022-07-26T02:02:04.275Z,47.97
2022-07-26T02:02:16.488Z,47.77
2022-07-26T02:02:29.629Z,47.84
2022-07-26T02:02:41.821Z,48.44
2022-07-26T02:02:54.370Z,48.02
2022-07-26T02:03:06.468Z,48.24
2022-07-26T02:03:18.553Z,48.60
2022-07-26T02:03:30.620Z,48.54
2022-07-26T02:03:42.593Z,48.77
2022-07-26T02:03:54.630Z,48.63
2022-07-26T02:04:08.615Z,48.51
2022-07-26T02:04:39.277Z,48.26
2022-07-26T02:05:00.275Z,48.12
2022-07-26T02:05:12.762Z,48.14
2022-07-26T02:05:25.055Z,48.71
2022-07-26T02:05:37.035Z,48.51
2022-07-26T02:05:48.971Z,48.40
2022-07-26T02:06:01.928Z,48.08
2022-07-26T02:06:14.880Z,47.99
2022-07-26T02:06:26.880Z,47.84
2022-07-26T02:06:39.881Z,48.08
2022-07-26T02:06:51.836Z,47.92
2022-07-26T02:07:05.416Z,48.08
2022-07-26T02:07:18.548Z,48.49
2022-07-26T02:07:37.120Z,48.49
2022-07-26T02:07:50.801Z,48.59
2022-07-26T02:08:02.920Z,49.03
2022-07-26T02:08:14.921Z,48.62
2022-07-26T02:08:27.329Z,48.51
2022-07-26T02:08:39.289Z,48.40
2022-07-26T02:08:51.217Z,48.27
2022-07-26T02:09:03.244Z,48.22
2022-07-26T02:09:17.851Z,48.35
2022-07-26T02:09:38.051Z,48.43
2022-07-26T02:09:51.988Z,48.39
2022-07-26T02:10:05.722Z,48.23
2022-07-26T02:10:19.204Z,48.44
2022-07-26T02:10:50.352Z,48.27
2022-07-26T02:11:03.583Z,48.43
2022-07-26T02:11:15.832Z,48.79
2022-07-26T02:11:27.789Z,49.03
2022-07-26T02:11:39.787Z,48.89
2022-07-26T02:11:51.739Z,48.83
2022-07-26T02:12:03.827Z,48.58
2022-07-26T02:12:15.934Z,48.65
2022-07-26T02:12:27.907Z,48.68
2022-07-26T02:12:40.409Z,48.70
2022-07-26T02:12:52.366Z,48.88
2022-07-26T02:13:04.315Z,48.66
2022-07-26T02:13:19.739Z,48.85
2022-07-26T02:13:35.560Z,48.73
2022-07-26T02:13:52.666Z,49.23
2022-07-26T02:14:05.370Z,49.25
2022-07-26T02:14:26.083Z,49.35
2022-07-26T02:14:40.094Z,49.36
2022-07-26T02:14:52.079Z,49.01
2022-07-26T02:15:05.880Z,49.02
2022-07-26T02:15:17.828Z,48.89
2022-07-26T02:15:29.932Z,48.72
2022-07-26T02:15:42.256Z,49.11
2022-07-26T02:15:54.316Z,48.96
2022-07-26T02:16:10.201Z,49.70
2022-07-26T02:16:22.543Z,49.31
2022-07-26T02:16:34.565Z,49.29
2022-07-26T02:16:46.531Z,49.14
2022-07-26T02:17:00.073Z,49.25
2022-07-26T02:17:12.313Z,49.29
2022-07-26T02:17:24.283Z,49.29
2022-07-26T02:17:36.368Z,49.23
2022-07-26T02:17:48.311Z,48.96
2022-07-26T02:18:01.606Z,49.02
2022-07-26T02:18:13.643Z,49.10
2022-07-26T02:18:28.455Z,49.10
2022-07-26T02:18:42.945Z,49.45
2022-07-26T02:18:54.868Z,49.65
2022-07-26T02:19:06.890Z,49.87
2022-07-26T02:19:18.818Z,49.48
2022-07-26T02:19:31.517Z,49.69
2022-07-26T02:19:43.722Z,49.40
2022-07-26T02:19:55.694Z,49.63
2022-07-26T02:20:08.625Z,49.47
2022-07-26T02:20:20.688Z,49.33
2022-07-26T02:20:33.314Z,49.18
2022-07-26T02:20:45.492Z,49.38
2022-07-26T02:20:58.533Z,49.16
2022-07-26T02:21:10.514Z,49.41
2022-07-26T02:21:22.450Z,49.23
2022-07-26T02:21:34.433Z,49.11
2022-07-26T02:21:46.444Z,49.01
2022-07-26T02:21:58.809Z,49.14
2022-07-26T02:22:10.791Z,49.18
2022-07-26T02:22:23.038Z,49.69
2022-07-26T02:22:35.452Z,49.50
2022-07-26T02:22:47.476Z,49.59
2022-07-26T02:23:03.743Z,50.04
2022-07-26T02:23:17.207Z,49.82
2022-07-26T02:23:29.300Z,49.87
2022-07-26T02:23:41.987Z,49.57
2022-07-26T02:23:54.142Z,49.82
2022-07-26T02:24:07.576Z,49.71
2022-07-26T02:24:21.685Z,49.86
2022-07-26T02:24:33.617Z,49.64
2022-07-26T02:24:47.061Z,49.75
2022-07-26T02:25:04.424Z,49.85
2022-07-26T02:25:17.657Z,49.71
2022-07-26T02:25:30.011Z,49.75
2022-07-26T02:25:43.652Z,49.77
2022-07-26T02:25:56.130Z,49.53
2022-07-26T02:26:08.111Z,49.62
2022-07-26T02:26:20.055Z,49.75
2022-07-26T02:26:31.983Z,49.62
2022-07-26T02:26:43.907Z,49.86
2022-07-26T02:26:57.019Z,49.95
2022-07-26T02:27:09.877Z,49.88
2022-07-26T02:27:22.056Z,49.96
2022-07-26T02:27:33.973Z,49.65
2022-07-26T02:27:45.946Z,49.90
2022-07-26T02:27:57.976Z,49.94
2022-07-26T02:28:10.010Z,50.15
2022-07-26T02:28:22.497Z,50.19
2022-07-26T02:28:34.422Z,49.91
2022-07-26T02:28:46.371Z,50.24
2022-07-26T02:28:58.309Z,50.18
2022-07-26T02:29:10.303Z,50.14
2022-07-26T02:29:22.321Z,50.18
2022-07-26T02:29:34.304Z,50.20
2022-07-26T02:29:46.327Z,50.32
2022-07-26T02:29:58.270Z,50.64
2022-07-26T02:30:11.056Z,50.67
2022-07-26T02:30:23.156Z,50.57
2022-07-26T02:30:35.215Z,50.32
2022-07-26T02:30:48.366Z,50.36
2022-07-26T02:31:00.413Z,50.53
2022-07-26T02:31:15.329Z,50.45
2022-07-26T02:31:27.773Z,50.92
2022-07-26T02:31:48.544Z,51.18
2022-07-26T02:32:01.285Z,51.13
2022-07-26T02:32:13.565Z,51.05
2022-07-26T02:32:25.581Z,51.22
2022-07-26T02:32:37.529Z,51.43
2022-07-26T02:32:50.320Z,51.18
2022-07-26T02:33:02.281Z,50.95
2022-07-26T02:33:15.495Z,51.08
2022-07-26T02:33:27.481Z,51.05
2022-07-26T02:33:39.626Z,51.04
2022-07-26T02:33:51.586Z,51.31
2022-07-26T02:34:03.793Z,51.26
2022-07-26T02:34:16.072Z,51.20
2022-07-26T02:34:32.197Z,51.07
2022-07-26T02:34:45.835Z,50.91
2022-07-26T02:34:57.771Z,51.30
2022-07-26T02:35:10.339Z,51.09
2022-07-26T02:35:22.333Z,51.14
2022-07-26T02:35:34.443Z,51.07
2022-07-26T02:35:47.254Z,51.06
2022-07-26T02:35:59.210Z,51.08
2022-07-26T02:36:11.143Z,51.03
2022-07-26T02:36:23.074Z,50.90
2022-07-26T02:36:36.485Z,50.77
2022-07-26T02:36:49.911Z,51.38
2022-07-26T02:37:03.680Z,51.51
2022-07-26T02:37:15.608Z,51.96
2022-07-26T02:37:27.534Z,51.59
2022-07-26T02:37:42.480Z,51.42
2022-07-26T02:37:55.903Z,51.49
2022-07-26T02:38:09.856Z,51.57
2022-07-26T02:38:22.570Z,51.57
2022-07-26T02:38:37.309Z,51.50
2022-07-26T02:38:49.253Z,51.66
2022-07-26T02:39:01.253Z,51.80
2022-07-26T02:39:13.461Z,51.86
2022-07-26T02:39:28.663Z,52.32
2022-07-26T02:39:40.773Z,52.31
2022-07-26T02:39:52.784Z,52.02
2022-07-26T02:40:05.343Z,52.22
2022-07-26T02:40:19.462Z,52.39
2022-07-26T02:40:32.459Z,52.76
2022-07-26T02:40:44.709Z,52.54
2022-07-26T02:40:56.642Z,52.74
2022-07-26T02:41:08.576Z,52.50
2022-07-26T02:41:20.561Z,52.31
2022-07-26T02:41:32.512Z,52.75
2022-07-26T02:41:44.651Z,52.59
2022-07-26T02:42:02.917Z,52.31
2022-07-26T02:42:14.894Z,52.55
2022-07-26T02:42:26.852Z,52.62
2022-07-26T02:42:38.833Z,52.90
2022-07-26T02:42:50.752Z,52.83
2022-07-26T02:43:04.251Z,52.83
2022-07-26T02:43:16.232Z,53.03
2022-07-26T02:43:30.487Z,52.82
2022-07-26T02:43:42.433Z,52.87
2022-07-26T02:43:54.454Z,52.82
2022-07-26T02:44:08.167Z,53.16
2022-07-26T02:44:20.598Z,53.02
2022-07-26T02:44:33.967Z,53.12
2022-07-26T02:44:45.911Z,53.04
2022-07-26T02:44:57.855Z,53.12
2022-07-26T02:45:10.828Z,53.17
2022-07-26T02:45:22.870Z,52.98
2022-07-26T02:45:35.596Z,53.13
2022-07-26T02:46:03.713Z,53.21
2022-07-26T02:46:15.730Z,52.94
2022-07-26T02:46:27.735Z,53.13